Time;durP1;ratioP1;P1;durP2;ratioP2;P2;SDS_P1;SDS_P2;PMS_P1;PMS_P2;Temp;Humidity;BMP_temperature;BMP_pressure;BME280_temperature;BME280_humidity;BME280_pressure;Samples;Min_cycle;Max_cycle;Signal;HPM_P1;HPM_P2
2022/04/23 00:02:06;;;;;;;6.47;5.87;;;11.90;55.00;;;;;;944144;148;27330;-73
2022/04/23 00:04:33;;;;;;;6.60;5.90;;;11.90;55.10;;;;;;943540;148;27415;-74
2022/04/23 00:06:59;;;;;;;7.80;6.20;;;11.90;55.30;;;;;;944181;148;27463;-74
2022/04/23 00:09:26;;;;;;;6.70;6.10;;;11.80;55.30;;;;;;943717;148;27464;-74
2022/04/23 00:11:55;;;;;;;6.77;6.17;;;11.80;55.50;;;;;;943563;148;27325;-74
2022/04/23 00:14:19;;;;;;;6.90;6.30;;;11.70;55.60;;;;;;943859;148;27736;-74
2022/04/23 00:16:46;;;;;;;7.10;6.40;;;11.70;55.50;;;;;;948966;147;27422;-74
2022/04/23 00:19:12;;;;;;;6.50;6.00;;;11.70;55.80;;;;;;943711;148;27460;-74
2022/04/23 00:21:39;;;;;;;7.33;6.63;;;11.60;55.80;;;;;;948260;147;28540;-74
2022/04/23 00:24:06;;;;;;;7.67;6.80;;;11.60;55.90;;;;;;945791;149;27391;-74
2022/04/23 00:26:32;;;;;;;7.27;6.67;;;11.60;56.00;;;;;;943838;148;27333;-73
2022/04/23 00:28:59;;;;;;;7.90;7.17;;;11.50;56.10;;;;;;944049;148;27281;-74
2022/04/23 00:31:26;;;;;;;7.90;7.20;;;11.50;56.30;;;;;;943639;148;27917;-74
2022/04/23 00:33:52;;;;;;;8.70;7.80;;;11.50;56.50;;;;;;943503;148;28375;-74
2022/04/23 00:36:19;;;;;;;8.33;7.53;;;11.50;56.50;;;;;;943587;148;27406;-74
2022/04/23 00:38:49;;;;;;;7.73;7.03;;;11.40;56.50;;;;;;944599;148;27401;-73
2022/04/23 00:41:43;;;;;;;9.47;8.10;;;11.40;56.70;;;;;;942200;148;27343;-74
2022/04/23 00:43:38;;;;;;;9.43;8.53;;;11.40;56.80;;;;;;942928;148;27456;-74
2022/04/23 00:46:05;;;;;;;8.50;7.70;;;11.40;56.90;;;;;;936958;150;27344;-73
2022/04/23 00:48:31;;;;;;;8.13;7.33;;;11.40;57.10;;;;;;938890;149;27296;-73
2022/04/23 00:50:58;;;;;;;10.20;7.83;;;11.40;57.30;;;;;;938783;150;27340;-73
2022/04/23 00:53:25;;;;;;;8.73;7.83;;;11.40;57.20;;;;;;938432;150;27325;-74
2022/04/23 00:55:54;;;;;;;9.17;8.27;;;11.40;57.40;;;;;;938974;150;27326;-73
2022/04/23 00:58:20;;;;;;;8.63;7.93;;;11.40;57.30;;;;;;938162;150;28406;-73
2022/04/23 01:00:47;;;;;;;7.30;6.60;;;11.40;57.40;;;;;;938132;150;27314;-73
2022/04/23 01:03:13;;;;;;;8.50;7.70;;;11.40;57.40;;;;;;938476;150;27447;-73
2022/04/23 01:05:44;;;;;;;8.80;8.00;;;11.40;57.50;;;;;;937990;150;27446;-73
2022/04/23 01:08:09;;;;;;;9.03;8.13;;;11.40;57.60;;;;;;937759;150;27472;-73
2022/04/23 01:10:36;;;;;;;9.00;8.20;;;11.30;57.50;;;;;;944500;148;28196;-73
2022/04/23 01:13:02;;;;;;;9.17;8.37;;;11.30;57.60;;;;;;945157;149;27619;-73
2022/04/23 01:15:29;;;;;;;9.13;8.30;;;11.30;57.50;;;;;;943989;151;27464;-74
2022/04/23 01:17:56;;;;;;;9.03;8.13;;;11.30;57.60;;;;;;944805;151;27357;-73
2022/04/23 01:20:24;;;;;;;8.67;7.87;;;11.30;57.90;;;;;;945535;151;27453;-73
2022/04/23 01:22:49;;;;;;;8.90;8.10;;;11.30;58.00;;;;;;944781;151;27270;-73
2022/04/23 01:25:15;;;;;;;8.97;8.13;;;11.30;58.30;;;;;;944116;149;27422;-73
2022/04/23 01:27:42;;;;;;;9.00;8.20;;;11.30;58.30;;;;;;944311;149;27316;-73
2022/04/23 01:30:10;;;;;;;10.00;9.00;;;11.30;58.50;;;;;;945065;151;27370;-74
2022/04/23 01:32:35;;;;;;;9.40;8.50;;;11.40;58.70;;;;;;929357;151;27335;-74
2022/04/23 01:35:03;;;;;;;8.67;7.87;;;11.40;58.90;;;;;;940903;149;27787;-74
2022/04/23 01:37:28;;;;;;;9.00;8.20;;;11.50;58.90;;;;;;928568;151;27346;-74
2022/04/23 01:39:55;;;;;;;9.27;8.37;;;11.50;58.90;;;;;;940953;152;27351;-74
2022/04/23 01:42:22;;;;;;;8.60;7.80;;;11.50;59.00;;;;;;940752;150;27322;-74
2022/04/23 01:44:48;;;;;;;8.13;7.33;;;11.60;59.00;;;;;;941159;149;27345;-74
2022/04/23 01:47:15;;;;;;;8.70;8.00;;;11.60;59.00;;;;;;940975;149;27353;-74
2022/04/23 01:49:41;;;;;;;8.53;7.67;;;11.60;59.00;;;;;;941178;149;27293;-74
2022/04/23 01:52:08;;;;;;;8.50;7.80;;;11.70;59.00;;;;;;941163;150;27830;-74
2022/04/23 01:54:34;;;;;;;7.93;7.13;;;11.70;58.80;;;;;;940359;151;27318;-74
2022/04/23 01:57:01;;;;;;;10.73;8.43;;;11.70;58.80;;;;;;941151;149;27403;-73
2022/04/23 01:59:28;;;;;;;8.70;7.93;;;11.80;59.00;;;;;;941530;149;27345;-73
2022/04/23 02:01:54;;;;;;;8.37;7.67;;;11.70;59.00;;;;;;929842;152;27364;-74
2022/04/23 02:04:21;;;;;;;9.20;8.40;;;11.70;59.10;;;;;;929078;151;27393;-73
2022/04/23 02:06:47;;;;;;;8.70;7.90;;;11.70;59.00;;;;;;928442;154;27410;-74
2022/04/23 02:09:14;;;;;;;8.23;7.43;;;11.70;59.10;;;;;;944748;151;27361;-74
2022/04/23 02:11:41;;;;;;;8.90;8.10;;;11.70;59.30;;;;;;944748;148;27737;-74
2022/04/23 02:14:08;;;;;;;8.17;7.47;;;11.70;59.40;;;;;;944602;149;27352;-74
2022/04/23 02:16:34;;;;;;;8.03;7.23;;;11.70;59.50;;;;;;944690;149;27418;-73
2022/04/23 02:19:03;;;;;;;7.63;6.97;;;11.70;59.60;;;;;;944821;149;27377;-73
2022/04/23 02:21:27;;;;;;;7.97;7.23;;;11.70;59.60;;;;;;944556;149;27405;-74
2022/04/23 02:23:54;;;;;;;7.47;6.77;;;11.80;59.70;;;;;;945038;149;27422;-74
2022/04/23 02:26:23;;;;;;;8.00;7.20;;;11.70;60.00;;;;;;944835;149;27430;-73
2022/04/23 02:28:49;;;;;;;7.20;6.60;;;11.80;59.80;;;;;;944799;149;27368;-74
2022/04/23 02:31:16;;;;;;;9.00;7.10;;;11.80;59.90;;;;;;945332;149;27426;-73
2022/04/23 02:33:44;;;;;;;7.97;7.27;;;11.80;59.90;;;;;;945338;151;27360;-73
2022/04/23 02:36:10;;;;;;;7.60;6.90;;;11.80;59.90;;;;;;945282;149;27349;-74
2022/04/23 02:38:39;;;;;;;7.90;7.10;;;11.80;59.80;;;;;;945468;149;27452;-74
2022/04/23 02:41:02;;;;;;;7.10;6.40;;;11.80;59.80;;;;;;944276;149;27386;-74
2022/04/23 02:43:29;;;;;;;7.37;6.70;;;11.80;59.80;;;;;;945425;149;27464;-73
2022/04/23 02:45:55;;;;;;;8.07;7.33;;;11.80;59.70;;;;;;945199;149;27398;-73
2022/04/23 02:48:22;;;;;;;8.43;7.73;;;11.80;59.70;;;;;;945000;149;27421;-74
2022/04/23 02:50:49;;;;;;;8.33;7.53;;;11.70;59.90;;;;;;945190;149;27418;-73
2022/04/23 02:53:16;;;;;;;7.60;6.90;;;11.70;59.90;;;;;;945174;149;27364;-73
2022/04/23 02:55:42;;;;;;;6.87;6.27;;;11.70;59.90;;;;;;945036;149;27333;-74
2022/04/23 02:58:09;;;;;;;8.27;7.40;;;11.60;59.90;;;;;;945398;149;27402;-74
2022/04/23 03:00:38;;;;;;;7.77;7.03;;;11.50;59.90;;;;;;945500;149;27394;-74
2022/04/23 03:03:05;;;;;;;8.23;7.43;;;11.50;60.00;;;;;;945417;149;27388;-73
2022/04/23 03:05:31;;;;;;;7.87;7.10;;;11.40;60.20;;;;;;944168;149;27341;-74
2022/04/23 03:08:00;;;;;;;7.70;7.00;;;11.30;60.20;;;;;;945003;149;27328;-74
2022/04/23 03:10:24;;;;;;;7.93;6.70;;;11.30;60.30;;;;;;945051;148;27305;-73
2022/04/23 03:12:51;;;;;;;7.70;7.00;;;11.20;60.30;;;;;;945929;149;27962;-73
2022/04/23 03:15:17;;;;;;;7.53;6.83;;;11.10;60.60;;;;;;944893;149;27378;-73
2022/04/23 03:17:44;;;;;;;7.40;6.70;;;11.10;60.80;;;;;;945049;149;27438;-73
2022/04/23 03:20:12;;;;;;;8.03;7.23;;;11.10;61.10;;;;;;945098;149;27346;-73
2022/04/23 03:22:37;;;;;;;6.70;6.13;;;11.00;61.10;;;;;;944905;149;27314;-73
2022/04/23 03:25:04;;;;;;;9.63;6.60;;;11.00;61.50;;;;;;945288;149;27904;-73
2022/04/23 03:27:30;;;;;;;6.37;5.87;;;11.00;61.70;;;;;;945325;149;27341;-73
2022/04/23 03:30:00;;;;;;;7.30;6.60;;;11.00;61.60;;;;;;944906;149;27488;-73
2022/04/23 03:32:26;;;;;;;6.90;6.30;;;11.00;62.10;;;;;;945400;149;29008;-73
2022/04/23 03:34:53;;;;;;;7.00;5.97;;;11.10;62.30;;;;;;944454;149;27406;-73
2022/04/23 03:37:20;;;;;;;6.47;5.90;;;11.10;62.40;;;;;;945098;149;27302;-73
2022/04/23 03:39:46;;;;;;;6.27;5.63;;;11.10;62.40;;;;;;945120;149;27351;-73
2022/04/23 03:42:13;;;;;;;7.10;6.50;;;11.20;62.40;;;;;;945090;149;27352;-73
2022/04/23 03:44:39;;;;;;;6.57;5.97;;;11.20;62.50;;;;;;944904;149;27430;-74
2022/04/23 03:47:06;;;;;;;6.33;5.73;;;11.30;62.50;;;;;;945160;149;27387;-74
2022/04/23 03:49:33;;;;;;;6.17;5.67;;;11.30;62.40;;;;;;944896;149;27323;-73
2022/04/23 03:51:59;;;;;;;7.57;5.80;;;11.40;62.70;;;;;;945558;149;27298;-73
2022/04/23 03:54:26;;;;;;;5.87;5.37;;;11.40;62.20;;;;;;943875;149;27348;-73
2022/04/23 03:56:52;;;;;;;6.23;5.73;;;11.40;62.20;;;;;;945037;149;27333;-74
2022/04/23 03:59:23;;;;;;;6.13;5.63;;;11.40;62.20;;;;;;944521;149;27309;-73
2022/04/23 04:01:48;;;;;;;5.73;5.23;;;11.40;62.20;;;;;;943766;149;27317;-74
2022/04/23 04:04:15;;;;;;;5.77;5.27;;;11.40;62.40;;;;;;944869;149;27383;-74
2022/04/23 04:06:42;;;;;;;5.33;4.93;;;11.40;62.30;;;;;;945015;149;27392;-73
2022/04/23 04:09:08;;;;;;;5.27;4.87;;;11.40;62.30;;;;;;945438;149;27344;-73
2022/04/23 04:14:20;;;;;;;6.33;5.80;;;11.40;62.20;;;;;;948542;147;27354;-73
2022/04/23 04:16:46;;;;;;;5.73;5.23;;;11.40;62.40;;;;;;943344;148;27902;-73
2022/04/23 04:19:14;;;;;;;6.57;5.83;;;11.40;62.60;;;;;;945819;149;27305;-73
2022/04/23 04:21:39;;;;;;;5.67;5.23;;;11.40;62.50;;;;;;948104;147;27416;-73
2022/04/23 04:24:06;;;;;;;6.13;5.63;;;11.40;62.70;;;;;;939539;150;27381;-73
2022/04/23 04:26:33;;;;;;;4.80;4.40;;;11.40;63.00;;;;;;939709;150;27312;-73
2022/04/23 04:28:59;;;;;;;5.30;4.90;;;11.40;62.80;;;;;;939398;150;27340;-73
2022/04/23 04:34:11;;;;;;;5.63;5.13;;;11.50;63.40;;;;;;939807;150;27351;-72
2022/04/23 04:36:37;;;;;;;5.33;4.70;;;11.50;63.60;;;;;;938934;149;27372;-73
2022/04/23 04:39:04;;;;;;;4.50;4.10;;;11.60;63.80;;;;;;939657;150;27339;-72
2022/04/23 04:41:31;;;;;;;4.87;4.47;;;11.60;63.70;;;;;;945647;149;27377;-72
2022/04/23 04:43:57;;;;;;;5.17;4.33;;;11.70;63.60;;;;;;946308;149;27333;-72
2022/04/23 04:46:23;;;;;;;5.27;4.87;;;11.80;63.70;;;;;;943899;149;27301;-73
2022/04/23 04:48:52;;;;;;;6.03;4.93;;;11.80;63.50;;;;;;943865;149;27376;-73
2022/04/23 04:51:17;;;;;;;4.93;4.43;;;11.90;63.60;;;;;;943812;149;27348;-73
2022/04/23 04:53:43;;;;;;;4.60;4.30;;;12.00;63.60;;;;;;943633;149;28236;-72
2022/04/23 04:56:10;;;;;;;4.40;4.00;;;12.10;63.70;;;;;;943317;149;27286;-72
2022/04/23 04:58:36;;;;;;;4.20;3.90;;;12.10;63.70;;;;;;943782;149;27310;-73
2022/04/23 05:01:03;;;;;;;4.00;3.63;;;12.30;64.00;;;;;;943978;149;27369;-73
2022/04/23 05:03:30;;;;;;;4.57;4.23;;;12.40;64.10;;;;;;943299;149;27405;-73
2022/04/23 05:05:56;;;;;;;4.03;3.73;;;12.60;64.40;;;;;;944077;149;27422;-73
2022/04/23 05:08:23;;;;;;;4.30;4.00;;;12.90;64.50;;;;;;943884;149;27309;-73
2022/04/23 05:10:49;;;;;;;3.70;3.40;;;13.20;64.60;;;;;;944035;149;27348;-73
2022/04/23 05:13:16;;;;;;;3.90;3.50;;;13.60;64.60;;;;;;944162;149;27831;-73
2022/04/23 05:15:44;;;;;;;3.77;3.47;;;14.00;64.20;;;;;;943933;149;27462;-72
2022/04/23 05:18:09;;;;;;;3.77;3.47;;;14.40;64.80;;;;;;944255;149;27349;-73
2022/04/23 05:20:36;;;;;;;3.70;3.40;;;14.80;63.40;;;;;;943809;149;27390;-72
2022/04/23 05:23:02;;;;;;;3.77;3.47;;;15.20;62.90;;;;;;943809;149;27406;-72
2022/04/23 05:25:29;;;;;;;3.87;3.60;;;15.60;62.30;;;;;;943817;148;27818;-73
2022/04/23 05:27:55;;;;;;;3.42;3.22;;;16.00;61.80;;;;;;944355;148;27353;-72
2022/04/23 05:30:22;;;;;;;4.00;3.72;;;16.40;61.30;;;;;;942785;149;27345;-73
2022/04/23 05:32:49;;;;;;;3.47;3.27;;;16.80;60.60;;;;;;943630;149;27411;-73
2022/04/23 05:35:15;;;;;;;3.70;3.40;;;17.20;60.00;;;;;;944124;148;27449;-73
2022/04/23 05:37:42;;;;;;;3.65;3.35;;;17.60;59.50;;;;;;944127;149;27262;-73
2022/04/23 05:40:08;;;;;;;3.12;2.92;;;18.00;59.20;;;;;;944019;148;27448;-74
2022/04/23 05:42:35;;;;;;;3.35;3.15;;;18.40;58.60;;;;;;943878;148;27372;-73
2022/04/23 05:45:02;;;;;;;3.30;3.02;;;18.80;58.20;;;;;;943858;149;27464;-73
2022/04/23 05:47:28;;;;;;;4.20;3.90;;;19.20;57.60;;;;;;943764;149;27383;-73
2022/04/23 05:49:55;;;;;;;2.90;2.70;;;19.60;56.90;;;;;;943560;149;27379;-73
2022/04/23 05:52:22;;;;;;;3.00;2.70;;;19.90;56.10;;;;;;943405;148;27334;-73
2022/04/23 05:54:48;;;;;;;3.37;3.15;;;20.10;55.40;;;;;;943699;148;27373;-73
2022/04/23 05:57:15;;;;;;;2.75;2.55;;;20.30;55.00;;;;;;943388;148;27714;-73
2022/04/23 05:59:41;;;;;;;3.20;3.00;;;20.40;54.30;;;;;;944064;149;27310;-73
2022/04/23 06:02:08;;;;;;;3.55;3.30;;;20.40;53.40;;;;;;943595;148;27442;-74
2022/04/23 06:04:34;;;;;;;3.52;3.10;;;20.40;52.80;;;;;;943570;149;27445;-73
2022/04/23 06:07:01;;;;;;;2.92;2.72;;;20.30;52.30;;;;;;943550;149;27369;-72
2022/04/23 06:09:27;;;;;;;3.25;3.05;;;20.10;52.20;;;;;;942871;149;27454;-73
2022/04/23 06:11:54;;;;;;;3.60;3.33;;;19.90;52.20;;;;;;942854;149;27403;-73
2022/04/23 06:14:21;;;;;;;3.40;3.20;;;19.70;52.30;;;;;;944141;148;27379;-73
2022/04/23 06:16:47;;;;;;;3.17;2.92;;;19.50;52.50;;;;;;943429;148;27298;-74
2022/04/23 06:19:14;;;;;;;3.17;2.98;;;19.40;52.80;;;;;;943506;149;27357;-73
2022/04/23 06:21:40;;;;;;;3.77;3.47;;;19.40;53.40;;;;;;943381;149;27352;-73
2022/04/23 06:24:07;;;;;;;3.58;3.37;;;19.50;54.00;;;;;;943986;148;27788;-73
2022/04/23 06:26:34;;;;;;;3.95;3.65;;;19.70;54.30;;;;;;943047;148;27314;-74
2022/04/23 06:29:00;;;;;;;3.30;3.10;;;20.00;54.30;;;;;;943884;149;27423;-74
2022/04/23 06:31:27;;;;;;;3.87;3.58;;;20.40;54.90;;;;;;943528;148;27657;-74
2022/04/23 06:33:53;;;;;;;3.50;3.20;;;20.90;54.30;;;;;;943845;149;27458;-74
2022/04/23 06:36:20;;;;;;;3.80;3.50;;;21.40;53.70;;;;;;942676;148;27448;-74
2022/04/23 06:38:47;;;;;;;3.42;3.22;;;21.90;53.20;;;;;;943026;149;27318;-74
2022/04/23 06:41:14;;;;;;;2.85;2.65;;;22.40;53.00;;;;;;943363;149;27343;-74
2022/04/23 06:43:40;;;;;;;3.60;3.30;;;22.90;52.40;;;;;;943969;149;27352;-74
2022/04/23 06:46:06;;;;;;;3.17;2.98;;;23.50;51.70;;;;;;943883;148;27362;-75
2022/04/23 06:48:33;;;;;;;3.40;3.20;;;24.00;50.80;;;;;;943928;149;27446;-73
2022/04/23 06:50:59;;;;;;;3.60;3.30;;;24.50;50.30;;;;;;943623;149;27426;-74
2022/04/23 06:53:26;;;;;;;3.10;2.90;;;25.00;49.10;;;;;;943657;149;27428;-74
2022/04/23 06:55:53;;;;;;;3.25;2.95;;;25.40;48.70;;;;;;943324;148;27709;-74
2022/04/23 06:58:19;;;;;;;3.30;3.10;;;25.70;47.60;;;;;;943411;149;27970;-75
2022/04/23 07:00:46;;;;;;;3.00;2.67;;;26.00;47.30;;;;;;943587;149;27445;-74
2022/04/23 07:03:12;;;;;;;3.15;2.85;;;26.30;47.30;;;;;;943617;148;27402;-74
2022/04/23 07:05:39;;;;;;;2.87;2.67;;;26.50;45.90;;;;;;943464;149;27385;-74
2022/04/23 07:08:06;;;;;;;3.02;2.83;;;26.70;45.10;;;;;;942634;148;27330;-74
2022/04/23 07:10:32;;;;;;;3.00;2.80;;;26.70;44.50;;;;;;943020;149;28125;-74
2022/04/23 07:12:59;;;;;;;2.85;2.65;;;26.60;43.80;;;;;;941011;149;27358;-74
2022/04/23 07:15:26;;;;;;;2.42;2.33;;;26.50;43.40;;;;;;931023;151;27468;-74
2022/04/23 07:17:52;;;;;;;2.77;2.58;;;26.30;43.50;;;;;;932594;151;27413;-74
2022/04/23 07:20:19;;;;;;;2.80;2.60;;;26.00;43.60;;;;;;931227;151;27376;-74
2022/04/23 07:24:03;;;;;;;2.72;2.52;;;26.00;44.00;;;;;;931005;151;27387;-74
2022/04/23 07:25:12;;;;;;;2.60;2.40;;;25.90;44.10;;;;;;928423;151;27376;-76
2022/04/23 07:27:38;;;;;;;2.58;2.42;;;25.90;43.90;;;;;;931240;151;27367;-73
2022/04/23 07:30:05;;;;;;;2.42;2.30;;;25.80;43.60;;;;;;931147;151;27355;-74
2022/04/23 07:32:32;;;;;;;2.60;2.40;;;25.80;43.00;;;;;;931196;151;27379;-74
2022/04/23 07:37:43;;;;;;;2.77;2.58;;;25.30;42.80;;;;;;931885;151;27308;-74
2022/04/23 07:40:12;;;;;;;2.92;2.72;;;25.10;43.00;;;;;;931104;151;27362;-75
2022/04/23 07:42:39;;;;;;;2.90;2.70;;;24.70;42.70;;;;;;931368;151;27417;-74
2022/04/23 07:45:05;;;;;;;2.90;2.70;;;24.40;42.80;;;;;;931364;151;27387;-75
2022/04/23 07:47:32;;;;;;;2.75;2.55;;;24.20;43.30;;;;;;931192;151;27364;-74
2022/04/23 07:49:59;;;;;;;2.75;2.55;;;23.90;43.70;;;;;;931463;151;27359;-74
2022/04/23 07:52:25;;;;;;;2.92;2.70;;;23.80;43.90;;;;;;931047;151;27488;-74
2022/04/23 07:54:52;;;;;;;2.85;2.20;;;23.70;44.20;;;;;;931375;151;27381;-74
2022/04/23 07:57:22;;;;;;;3.10;2.90;;;23.60;44.10;;;;;;932068;151;27340;-74
2022/04/23 07:59:48;;;;;;;2.30;2.20;;;23.50;44.10;;;;;;931297;151;27339;-74
2022/04/23 08:02:15;;;;;;;2.50;2.37;;;23.40;44.30;;;;;;931722;151;27339;-74
2022/04/23 08:04:41;;;;;;;2.35;2.15;;;23.30;43.90;;;;;;931463;151;27404;-74
2022/04/23 08:07:08;;;;;;;2.33;2.12;;;23.30;44.40;;;;;;932048;151;27378;-74
2022/04/23 08:09:39;;;;;;;3.05;2.60;;;23.40;45.00;;;;;;931510;151;27336;-74
2022/04/23 08:12:01;;;;;;;2.75;2.55;;;23.60;45.30;;;;;;930592;151;27864;-74
2022/04/23 08:14:28;;;;;;;2.37;2.27;;;23.90;45.50;;;;;;936333;149;27443;-74
2022/04/23 08:16:54;;;;;;;2.17;2.08;;;24.30;45.30;;;;;;942921;149;28082;-74
2022/04/23 08:19:21;;;;;;;2.58;2.37;;;24.80;45.10;;;;;;943395;149;27438;-74
2022/04/23 08:21:47;;;;;;;2.37;2.27;;;25.20;44.60;;;;;;944027;149;27362;-74
2022/04/23 08:24:14;;;;;;;2.65;2.45;;;25.60;44.20;;;;;;942577;149;27364;-74
2022/04/23 08:26:41;;;;;;;3.55;3.25;;;26.00;44.10;;;;;;943461;148;27401;-74
2022/04/23 08:31:52;;;;;;;2.75;2.55;;;26.90;43.30;;;;;;944003;149;27351;-74
2022/04/23 08:34:18;;;;;;;3.00;2.80;;;27.30;42.70;;;;;;944129;149;27960;-74
2022/04/23 08:36:45;;;;;;;2.58;2.37;;;27.70;40.90;;;;;;943556;149;27419;-74
2022/04/23 08:39:11;;;;;;;3.42;3.12;;;28.00;41.00;;;;;;943602;149;27283;-74
2022/04/23 08:41:39;;;;;;;3.40;3.10;;;28.30;40.60;;;;;;943633;149;27375;-74
2022/04/23 08:44:07;;;;;;;2.92;2.72;;;28.60;40.70;;;;;;943311;149;27299;-74
2022/04/23 08:46:36;;;;;;;3.30;3.00;;;28.80;40.70;;;;;;944293;148;27472;-74
2022/04/23 08:49:06;;;;;;;3.75;3.45;;;29.10;40.00;;;;;;943645;149;27418;-74
2022/04/23 08:51:32;;;;;;;4.25;3.12;;;29.20;39.50;;;;;;943903;149;27387;-74
2022/04/23 08:53:59;;;;;;;4.00;3.70;;;29.40;39.20;;;;;;943652;149;27358;-74
2022/04/23 08:56:25;;;;;;;3.90;3.60;;;29.30;38.20;;;;;;943467;149;27432;-74
2022/04/23 08:58:52;;;;;;;4.20;3.90;;;29.20;37.90;;;;;;944272;149;27410;-74
2022/04/23 09:01:19;;;;;;;4.20;3.90;;;28.90;37.60;;;;;;943475;149;27388;-74
2022/04/23 09:03:45;;;;;;;4.35;4.05;;;28.60;38.10;;;;;;943357;148;27377;-75
2022/04/23 09:06:12;;;;;;;3.92;3.62;;;28.40;37.40;;;;;;943752;148;27299;-74
2022/04/23 09:08:38;;;;;;;4.50;4.20;;;28.10;38.10;;;;;;943955;149;27388;-74
2022/04/23 09:11:05;;;;;;;4.55;4.15;;;28.00;38.40;;;;;;940218;149;27408;-74
2022/04/23 09:13:32;;;;;;;3.77;3.50;;;27.90;38.00;;;;;;943498;149;27319;-74
2022/04/23 09:24:21;;;;;;;4.00;3.70;;;28.10;38.70;;;;;;945033;151;27322;-74
2022/04/23 09:27:06;;;;;;;4.00;3.70;;;28.30;38.20;;;;;;945551;151;27397;-74
2022/04/23 09:29:30;;;;;;;4.15;3.85;;;28.30;37.80;;;;;;944479;149;27362;-74
2022/04/23 09:32:08;;;;;;;3.62;3.33;;;28.10;37.40;;;;;;945949;149;27333;-74
2022/04/23 09:34:34;;;;;;;4.10;3.80;;;27.90;37.20;;;;;;944409;151;27365;-73
2022/04/23 09:37:01;;;;;;;4.72;4.33;;;27.60;37.30;;;;;;945492;149;28127;-74
2022/04/23 09:39:36;;;;;;;4.45;4.05;;;27.40;37.50;;;;;;945308;151;27415;-74
2022/04/23 09:42:18;;;;;;;3.20;3.00;;;27.30;37.90;;;;;;944328;151;27333;-74
2022/04/23 09:44:44;;;;;;;4.17;3.70;;;27.10;38.20;;;;;;944999;151;27323;-74
2022/04/23 09:47:11;;;;;;;4.70;4.20;;;27.00;38.10;;;;;;945216;149;27346;-73
2022/04/23 09:49:39;;;;;;;4.20;3.85;;;26.90;37.70;;;;;;945212;151;28441;-74
2022/04/23 09:52:07;;;;;;;4.85;4.45;;;26.60;37.40;;;;;;944913;151;27334;-74
2022/04/23 09:54:33;;;;;;;5.10;4.70;;;26.30;37.50;;;;;;944816;151;27321;-73
2022/04/23 09:57:00;;;;;;;4.72;4.33;;;26.10;37.90;;;;;;946118;149;27375;-74
2022/04/23 09:59:27;;;;;;;5.00;4.50;;;25.80;38.40;;;;;;945765;151;27354;-74
2022/04/23 10:01:53;;;;;;;6.28;4.33;;;25.60;38.60;;;;;;945332;151;27427;-73
2022/04/23 10:04:20;;;;;;;5.12;4.72;;;25.50;39.00;;;;;;945426;149;27362;-74
2022/04/23 10:06:46;;;;;;;5.22;4.78;;;25.30;39.10;;;;;;945150;149;27311;-73
2022/04/23 10:09:13;;;;;;;5.20;4.42;;;25.20;39.20;;;;;;945026;151;27357;-74
2022/04/23 10:11:39;;;;;;;5.15;4.65;;;25.20;39.30;;;;;;945410;151;27447;-74
2022/04/23 10:14:06;;;;;;;5.40;4.92;;;25.10;39.30;;;;;;944833;149;27363;-73
2022/04/23 10:16:33;;;;;;;7.40;6.10;;;25.00;39.20;;;;;;945035;149;27439;-73
2022/04/23 10:18:59;;;;;;;5.65;5.17;;;24.90;38.90;;;;;;945111;149;27662;-74
2022/04/23 10:21:39;;;;;;;5.83;5.33;;;24.70;39.00;;;;;;945338;149;27389;-74
2022/04/23 10:24:10;;;;;;;5.50;5.10;;;24.40;39.30;;;;;;944991;151;27361;-73
2022/04/23 10:26:53;;;;;;;6.47;5.30;;;24.20;39.60;;;;;;944521;149;27327;-74
2022/04/23 10:29:24;;;;;;;5.17;4.78;;;24.00;39.70;;;;;;945211;151;27312;-74
2022/04/23 10:32:18;;;;;;;6.67;5.45;;;23.70;39.90;;;;;;944600;149;27337;-74
2022/04/23 10:34:41;;;;;;;6.25;5.75;;;23.50;40.00;;;;;;943916;149;27469;-73
2022/04/23 10:37:19;;;;;;;5.92;5.42;;;23.30;40.40;;;;;;945140;149;27363;-74
2022/04/23 10:39:52;;;;;;;6.03;5.53;;;23.10;40.70;;;;;;944965;151;27444;-74
2022/04/23 10:42:21;;;;;;;6.37;5.70;;;22.90;40.90;;;;;;945607;151;27544;-73
2022/04/23 10:44:48;;;;;;;7.17;6.50;;;22.70;41.00;;;;;;945007;149;27377;-74
2022/04/23 10:47:16;;;;;;;8.15;6.30;;;22.40;40.70;;;;;;945869;149;27381;-73
2022/04/23 10:49:41;;;;;;;6.85;5.87;;;22.20;41.50;;;;;;942336;151;27404;-73
2022/04/23 10:52:08;;;;;;;6.03;5.53;;;22.00;41.70;;;;;;945710;151;27341;-73
2022/04/23 10:54:37;;;;;;;6.97;6.37;;;21.80;42.00;;;;;;945754;151;27281;-73
2022/04/23 10:57:04;;;;;;;7.10;6.40;;;21.60;42.40;;;;;;943297;149;27407;-73
2022/04/23 10:59:38;;;;;;;8.55;7.72;;;21.50;42.60;;;;;;944926;149;27360;-73
2022/04/23 11:02:03;;;;;;;8.33;6.58;;;21.40;43.10;;;;;;945010;151;27302;-73
2022/04/23 11:04:29;;;;;;;7.62;6.92;;;21.30;43.40;;;;;;945208;149;27401;-73
2022/04/23 11:12:33;;;;;;;6.85;6.30;;;21.20;43.80;;;;;;945202;151;27501;-73
2022/04/23 11:15:00;;;;;;;7.00;6.30;;;21.20;43.80;;;;;;945310;151;27382;-74
2022/04/23 11:17:30;;;;;;;6.85;6.25;;;21.20;43.90;;;;;;944699;149;27372;-74
2022/04/23 11:19:56;;;;;;;6.78;6.10;;;21.20;43.80;;;;;;943626;149;27779;-74
2022/04/23 11:22:22;;;;;;;7.45;6.70;;;21.20;43.80;;;;;;944015;149;27372;-74
2022/04/23 11:24:49;;;;;;;7.92;7.12;;;21.10;43.80;;;;;;944213;149;27357;-73
2022/04/23 11:27:32;;;;;;;8.05;7.35;;;21.10;44.00;;;;;;945016;149;27298;-73
2022/04/23 11:29:57;;;;;;;7.95;7.25;;;21.00;44.00;;;;;;943883;149;27376;-73
2022/04/23 11:32:27;;;;;;;7.72;6.78;;;21.00;44.10;;;;;;944723;149;27450;-73
2022/04/23 11:34:59;;;;;;;6.67;6.10;;;21.00;44.50;;;;;;943341;149;27404;-74
2022/04/23 11:37:28;;;;;;;8.40;7.28;;;20.90;44.30;;;;;;944395;149;27403;-73
2022/04/23 11:39:55;;;;;;;7.33;6.55;;;20.90;44.50;;;;;;942845;149;27317;-73
2022/04/23 11:42:21;;;;;;;7.87;7.17;;;20.90;44.50;;;;;;942090;149;27322;-74
2022/04/23 11:44:50;;;;;;;7.25;6.55;;;21.00;44.60;;;;;;941019;149;27381;-73
2022/04/23 11:47:17;;;;;;;7.35;6.72;;;21.00;44.80;;;;;;943152;149;27341;-73
2022/04/23 11:49:44;;;;;;;7.75;6.85;;;21.10;44.80;;;;;;942279;149;27855;-74
2022/04/23 11:52:12;;;;;;;7.83;7.12;;;21.20;44.70;;;;;;944074;149;27301;-74
2022/04/23 11:54:40;;;;;;;7.70;7.00;;;21.20;44.70;;;;;;943590;149;27326;-74
2022/04/23 11:57:07;;;;;;;9.13;8.08;;;21.30;44.70;;;;;;943975;149;27368;-73
2022/04/23 11:59:42;;;;;;;8.35;7.55;;;21.40;44.60;;;;;;943284;149;27332;-73
2022/04/23 12:02:23;;;;;;;7.92;7.12;;;21.50;44.60;;;;;;944039;149;27342;-73
2022/04/23 12:04:48;;;;;;;7.50;6.80;;;21.50;44.50;;;;;;942802;149;27354;-73
2022/04/23 12:07:13;;;;;;;7.95;6.70;;;21.50;44.20;;;;;;943878;149;27791;-74
2022/04/23 12:09:51;;;;;;;8.38;7.53;;;21.50;44.10;;;;;;943914;149;27911;-73
2022/04/23 12:12:21;;;;;;;7.87;6.95;;;21.40;44.00;;;;;;944067;149;27438;-73
2022/04/23 12:14:47;;;;;;;8.70;7.65;;;21.30;44.00;;;;;;943396;149;27325;-74
2022/04/23 12:17:26;;;;;;;7.75;7.00;;;21.30;44.20;;;;;;944623;149;27412;-73
2022/04/23 12:19:53;;;;;;;6.67;6.08;;;21.20;44.30;;;;;;945294;151;27421;-74
2022/04/23 12:22:28;;;;;;;6.47;5.87;;;21.10;44.50;;;;;;945177;149;27313;-74
2022/04/23 12:25:25;;;;;;;6.97;6.37;;;21.00;44.30;;;;;;945795;151;27441;-74
2022/04/23 12:27:51;;;;;;;6.90;6.30;;;21.00;44.30;;;;;;943379;149;27349;-74
2022/04/23 12:41:01;;;;;;;11.08;9.43;;;20.50;44.80;;;;;;945653;151;27373;-75
2022/04/23 12:43:33;;;;;;;8.75;7.85;;;20.50;44.90;;;;;;944840;151;27373;-74
2022/04/23 12:46:09;;;;;;;8.63;7.72;;;20.40;44.90;;;;;;945138;149;27353;-74
2022/04/23 12:49:00;;;;;;;10.32;6.92;;;20.40;45.00;;;;;;945481;151;27274;-74
2022/04/23 12:51:26;;;;;;;7.62;6.92;;;20.40;45.10;;;;;;944758;151;27429;-75
2022/04/23 12:53:53;;;;;;;7.47;6.78;;;20.40;45.10;;;;;;944657;151;27342;-74
2022/04/23 12:56:19;;;;;;;7.78;7.03;;;20.40;45.70;;;;;;944640;149;27469;-74
2022/04/23 12:58:46;;;;;;;7.85;6.85;;;20.30;45.10;;;;;;942043;151;27305;-74
2022/04/23 13:01:13;;;;;;;7.42;6.75;;;20.30;45.80;;;;;;945037;149;27352;-75
2022/04/23 13:03:44;;;;;;;7.15;6.45;;;20.30;45.20;;;;;;945152;151;27369;-74
2022/04/23 13:08:56;;;;;;;6.85;6.25;;;20.30;45.40;;;;;;945151;151;28121;-74
2022/04/23 13:11:29;;;;;;;7.83;7.12;;;20.40;45.50;;;;;;945105;151;27843;-75
2022/04/23 13:13:55;;;;;;;7.50;6.90;;;20.40;45.60;;;;;;944794;151;27684;-74
2022/04/23 13:16:21;;;;;;;7.37;6.78;;;20.40;45.60;;;;;;945215;149;27897;-74
2022/04/23 13:18:48;;;;;;;6.83;6.22;;;20.50;45.60;;;;;;951057;148;27427;-75
2022/04/23 13:21:15;;;;;;;7.15;6.45;;;20.50;45.40;;;;;;953277;148;27670;-74
2022/04/23 13:23:41;;;;;;;6.60;6.05;;;20.50;45.40;;;;;;953102;148;27378;-74
2022/04/23 13:26:08;;;;;;;6.95;6.25;;;20.50;45.20;;;;;;952888;148;27323;-75